Mold, United Kingdom
Current Conditions -  °F | °C
As of 3:20 PM on Thursday 18 Dec 2014 (Local Time) from EGNR Reporting Station
Scattered Clouds Scattered Clouds  
Wind Chill: 57°   Ceiling: Unl
Heat Index: 57°   Visibility: 6mi
Dew Point: 52°   Wind: 28mph
Humidity: 82%   Direction: 240°WSW
Pressure: 29.62"   Gusts: NA
Location:  53.17°N, 3.14°W
Report Text: EGNR 181520Z 24024KT 9999 FEW020 SCT024 14/11 Q1003
Loading
Personal Weather Stations






























Interactive Weather Map New forecast layout! Learn more

10-Day Weather Forecast

Advertisements
Track Severe Weather on mobile